Monarch Pass, CO

2:57 PM MDT on March 24, 2017 (GMT -0600)
Monarch Pass

Weather History for KMYP - May, 2013

Change the Weather History Date:

Sunday, May 26, 2013

  Actual Average (KGUC) Record (KGUC)
Temperature  
Mean Temperature 49 °F -  
Max Temperature 59 °F 67 °F 75 °F (2001)
Min Temperature 39 °F 34 °F 28 °F (2002)
Degree Days  
Heating Degree Days 16    
Moisture  
Dew Point 13 °F    
Average Humidity 27    
Maximum Humidity 34    
Minimum Humidity 13    
Precipitation  
Precipitation 0.00 in - - ()
Sea Level Pressure  
Sea Level Pressure 30.49 in    
Wind  
Wind Speed 17 mph (West)    
Max Wind Speed 31 mph    
Max Gust Speed 40 mph    
Averages and records for this station are not official NWS values.
T = Trace of Precipitation, MM = Missing Value Source: NWS Daily Summary

Daily Weather History Graph

Daily Weather History Graph

Search for Another Location

Airport or City:

Trip Planner

Search our weather history database for the weather conditions in past years. The results will help you decide how hot, cold, wet, or windy it might be!

Date:

Astronomy

May. 26, 2013 Rise Set
Actual Time 5:45 AM MDT 8:18 PM MDT
Civil Twilight 5:15 AM MDT 8:49 PM MDT
Nautical Twilight 4:37 AM MDT 9:27 PM MDT
Astronomical Twilight 3:54 AM MDT 10:09 PM MDT
Moon 10:08 PM MDT (5/26) 7:17 AM MDT (5/26)
Length of Visible Light 15h 33m
Length of Day
14h 32m
Waning Gibbous, 96% of the Moon is Illuminated
May 26
Waning Gibbous
May 31
Last Quarter
Jun 8
New
Jun 16
First Quarter
Jun 23
Full

Hourly Weather History & Observations

Time (MDT) Temp. Windchill Dew Point Humidity Pressure Visibility Wind Dir Wind Speed Gust Speed Precip Events Conditions
12:13 AM 42.8 °F 36.2 °F 12.2 °F 29% 30.53 in - West 12.7 mph - N/A   Clear
12:33 AM 42.8 °F 35.4 °F 12.2 °F 29% 30.53 in - West 15.0 mph - N/A   Clear
12:53 AM 42.8 °F 35.1 °F 12.2 °F 29% 30.52 in - West 16.1 mph - N/A   Clear
1:13 AM 42.8 °F 34.8 °F 12.2 °F 29% 30.51 in - West 17.3 mph - N/A   Clear
1:33 AM 41.0 °F 31.9 °F 12.2 °F 31% 30.51 in - West 19.6 mph - N/A   Clear
1:53 AM 41.0 °F 32.8 °F 14.0 °F 33% 30.50 in - West 16.1 mph - N/A   Clear
2:13 AM 41.0 °F 32.5 °F 14.0 °F 33% 30.50 in - West 17.3 mph - N/A   Clear
2:33 AM 42.8 °F 33.8 °F 14.0 °F 31% 30.49 in - WSW 21.9 mph - N/A   Clear
2:53 AM 42.8 °F 33.8 °F 12.2 °F 29% 30.49 in - WSW 21.9 mph 25.3 mph N/A   Clear
3:13 AM 41.0 °F 31.9 °F 12.2 °F 31% 30.49 in - WSW 19.6 mph - N/A   Clear
3:33 AM 41.0 °F 31.4 °F 14.0 °F 33% 30.49 in - West 21.9 mph - N/A   Clear
3:53 AM 41.0 °F 32.2 °F 14.0 °F 33% 30.50 in - West 18.4 mph - N/A   Clear
4:13 AM 41.0 °F 31.6 °F 14.0 °F 33% 30.50 in - West 20.7 mph - N/A   Clear
4:33 AM 41.0 °F 32.2 °F 12.2 °F 31% 30.51 in - West 18.4 mph - N/A   Clear
4:53 AM 39.2 °F 28.7 °F 12.2 °F 33% 30.50 in - West 23.0 mph - N/A   Clear
5:13 AM 39.2 °F 28.7 °F 12.2 °F 33% 30.50 in - West 23.0 mph - N/A   Clear
5:33 AM 41.0 °F 31.1 °F 10.4 °F 29% 30.50 in - West 23.0 mph - N/A   Clear
5:53 AM 41.0 °F 31.6 °F 12.2 °F 31% 30.51 in - West 20.7 mph - N/A   Clear
6:13 AM 41.0 °F 32.8 °F 12.2 °F 31% 30.51 in - WSW 16.1 mph - N/A   Clear
6:33 AM 39.2 °F 31.2 °F 12.2 °F 33% 30.51 in - West 13.8 mph - N/A   Clear
6:53 AM 39.2 °F 30.2 °F 12.2 °F 33% 30.51 in - West 17.3 mph - N/A   Clear
7:13 AM 41.0 °F 33.1 °F 12.2 °F 31% 30.51 in - West 15.0 mph - N/A   Clear
7:33 AM 41.0 °F 32.2 °F 12.2 °F 31% 30.51 in - West 18.4 mph - N/A   Clear
7:53 AM 41.0 °F 32.5 °F 12.2 °F 31% 30.51 in - West 17.3 mph - N/A   Clear
8:13 AM 41.0 °F 32.2 °F 12.2 °F 31% 30.51 in - West 18.4 mph - N/A   Clear
8:33 AM 42.8 °F 34.0 °F 12.2 °F 29% 30.51 in - West 20.7 mph - N/A   Clear
8:53 AM 42.8 °F 34.3 °F 12.2 °F 29% 30.51 in - West 19.6 mph 24.2 mph N/A   Clear
9:13 AM 44.6 °F 36.4 °F 12.2 °F 27% 30.51 in - West 20.7 mph 25.3 mph N/A   Clear
9:33 AM 44.6 °F 37.4 °F 10.4 °F 25% 30.52 in - West 16.1 mph 24.2 mph N/A   Clear
9:53 AM 44.6 °F 37.4 °F 12.2 °F 27% 30.52 in - SW 16.1 mph 21.9 mph N/A   Clear
10:13 AM 46.4 °F 38.7 °F 10.4 °F 23% 30.51 in - WSW 20.7 mph - N/A   Clear
10:33 AM 46.4 °F 40.1 °F 14.0 °F 27% 30.52 in - West 15.0 mph 18.4 mph N/A   Clear
10:53 AM 46.4 °F 41.5 °F 14.0 °F 27% 30.52 in - West 10.4 mph - N/A   Clear
11:13 AM 50.0 °F - 12.2 °F 22% 30.52 in - West 15.0 mph 23.0 mph N/A   Clear
11:33 AM 50.0 °F - 12.2 °F 22% 30.52 in - WSW 3.5 mph 24.2 mph N/A   Clear
11:53 AM 51.8 °F - 15.8 °F 24% 30.52 in - WSW 9.2 mph - N/A   Clear
12:13 PM 51.8 °F - 15.8 °F 24% 30.51 in - West 6.9 mph - N/A   Clear
12:33 PM 53.6 °F - 15.8 °F 22% 30.51 in - WSW 11.5 mph 17.3 mph N/A   Clear
12:53 PM 55.4 °F - 14.0 °F 20% 30.51 in - SSW 11.5 mph 20.7 mph N/A   Clear
1:13 PM 53.6 °F - 10.4 °F 18% 30.50 in - West 4.6 mph - N/A   Clear
1:33 PM 55.4 °F - 12.2 °F 18% 30.49 in - Calm Calm - N/A   Clear
1:53 PM 53.6 °F - 14.0 °F 21% 30.49 in - SSW 5.8 mph - N/A   Clear
2:13 PM 55.4 °F - 12.2 °F 18% 30.48 in - SSE 11.5 mph 21.9 mph N/A   Clear
2:33 PM 53.6 °F - 10.4 °F 18% 30.47 in - SSE 5.8 mph 16.1 mph N/A   Mostly Cloudy
2:53 PM 57.2 °F - 10.4 °F 16% 30.47 in - SSW 25.3 mph 32.2 mph N/A   Scattered Clouds
3:13 PM 57.2 °F - 8.6 °F 14% 30.46 in - WSW 15.0 mph 26.5 mph N/A   Clear
3:33 PM 59.0 °F - 8.6 °F 14% 30.45 in - SW 27.6 mph 33.4 mph N/A   Scattered Clouds
3:53 PM 55.4 °F - 5.0 °F 13% 30.45 in - SSW 28.8 mph 38.0 mph N/A   Scattered Clouds
4:13 PM 55.4 °F - 14.0 °F 20% 30.45 in - West 24.2 mph 36.8 mph N/A   Scattered Clouds
4:33 PM 55.4 °F - 14.0 °F 20% 30.45 in - West 19.6 mph 34.5 mph N/A   Scattered Clouds
4:53 PM 57.2 °F - 15.8 °F 20% 30.44 in - West 31.1 mph 36.8 mph N/A   Scattered Clouds
5:13 PM 55.4 °F - 15.8 °F 21% 30.45 in - WSW 25.3 mph 40.3 mph N/A   Clear
5:33 PM 55.4 °F - 17.6 °F 23% 30.45 in - West 24.2 mph 34.5 mph N/A   Clear
5:53 PM 53.6 °F - 17.6 °F 24% 30.45 in - West 27.6 mph 33.4 mph N/A   Clear
6:13 PM 55.4 °F - 17.6 °F 23% 30.45 in - West 17.3 mph 27.6 mph N/A   Clear
6:33 PM 53.6 °F - 17.6 °F 24% 30.44 in - West 20.7 mph 31.1 mph N/A   Clear
6:53 PM 53.6 °F - 17.6 °F 24% 30.44 in - West 23.0 mph 32.2 mph N/A   Clear
7:13 PM 53.6 °F - 17.6 °F 24% 30.45 in - West 26.5 mph 31.1 mph N/A   Clear
7:33 PM 51.8 °F - 15.8 °F 24% 30.45 in - West 23.0 mph 29.9 mph N/A   Clear
7:53 PM 50.0 °F - 17.6 °F 28% 30.44 in - West 29.9 mph 35.7 mph N/A   Clear
8:13 PM 48.2 °F - 17.6 °F 30% 30.45 in - West 28.8 mph 34.5 mph N/A   Clear
8:33 PM 46.4 °F 38.3 °F 15.8 °F 29% 30.46 in - West 23.0 mph 29.9 mph N/A   Clear
8:53 PM 44.6 °F 36.6 °F 15.8 °F 31% 30.47 in - West 19.6 mph - N/A   Clear
9:13 PM 44.6 °F 36.4 °F 15.8 °F 31% 30.47 in - West 20.7 mph - N/A   Clear
9:33 PM 42.8 °F 35.1 °F 15.8 °F 34% 30.48 in - West 16.1 mph - N/A   Clear
9:53 PM 42.8 °F 35.8 °F 14.0 °F 31% 30.49 in - WNW 13.8 mph 23.0 mph N/A   Clear
10:13 PM 42.8 °F 34.8 °F 14.0 °F 31% 30.49 in - West 17.3 mph - N/A   Clear
10:33 PM 42.8 °F 34.8 °F 12.2 °F 29% 30.50 in - West 17.3 mph - N/A   Clear
10:53 PM 42.8 °F 34.5 °F 12.2 °F 29% 30.50 in - WNW 18.4 mph - N/A   Clear
11:13 PM 42.8 °F 34.0 °F 12.2 °F 29% 30.49 in - West 20.7 mph - N/A   Clear
11:33 PM 41.0 °F 31.6 °F 10.4 °F 29% 30.48 in - West 20.7 mph - N/A   Clear
11:53 PM 41.0 °F 32.5 °F 10.4 °F 29% 30.48 in - West 17.3 mph 26.5 mph N/A   Clear